This is the latest recevied weather packets stored in our database for station/object KD8OUK. If no packets are shown the sender has not sent any weather packets the latest 10 day(s).
| Time | Temp. | Humidity | Pressure | Rain* | Wind** | Luminosity | Snow |
|---|---|---|---|---|---|---|---|
| 1777582826 | 12.78° C | 49% | 1015.7 hPa | 0 mm | - | - | - |
| 1777582518 | 14.44° C | 46% | 1015.7 hPa | 0 mm | - | - | - |
| 1777582228 | 15.56° C | 45% | 1015.7 hPa | 0 mm | - | - | - |
| 1777581920 | 15° C | 47% | 1015.7 hPa | 0 mm | - | - | - |
| 1777581630 | 13.33° C | 51% | 1015.7 hPa | 0 mm | - | - | - |
| 1777581319 | 12.78° C | 52% | 1015.6 hPa | 0 mm | - | - | - |
| 1777581027 | 12.78° C | 52% | 1015.6 hPa | 0 mm | - | - | - |
| 1777580719 | 12.78° C | 51% | 1015.6 hPa | 0 mm | - | - | - |
| 1777580429 | 13.33° C | 49% | 1015.7 hPa | 0 mm | - | - | - |
| 1777580122 | 14.44° C | 46% | 1015.7 hPa | 0 mm | - | - | - |
| 1777579826 | 15.56° C | 45% | 1015.7 hPa | 0 mm | - | - | - |
| 1777579524 | 15.56° C | 46% | 1015.7 hPa | 0 mm | - | - | - |
| 1777579216 | 15.56° C | 44% | 1015.7 hPa | 0 mm | - | - | - |
| 1777578921 | 15° C | 45% | 1015.7 hPa | 0 mm | - | - | - |
| 1777578619 | 14.44° C | 46% | 1015.7 hPa | 0 mm | - | - | - |
| 1777578316 | 15.56° C | 44% | 1015.8 hPa | 0 mm | - | - | - |
| 1777578021 | 15° C | 46% | 1015.8 hPa | 0 mm | - | - | - |
| 1777577731 | 14.44° C | 48% | 1015.9 hPa | 0 mm | - | - | - |
| 1777577423 | 13.89° C | 50% | 1015.9 hPa | 0 mm | - | - | - |
| 1777577115 | 12.22° C | 51% | 1015.9 hPa | 0 mm | - | - | - |
| 1777576824 | 12.78° C | 53% | 1015.9 hPa | 0 mm | - | - | - |
| 1777576530 | 13.33° C | 50% | 1015.9 hPa | 0 mm | - | - | - |
| 1777576222 | 13.33° C | 49% | 1015.8 hPa | 0 mm | - | - | - |
| 1777575933 | 13.89° C | 47% | 1015.8 hPa | 0 mm | - | - | - |
| 1777575625 | 14.44° C | 47% | 1016 hPa | 0 mm | - | - | - |
* Rain latest hour (hover to see other rain measurements)
** Current wind speed in m/s (hover to see current wind gust speed)